Time;durP1;ratioP1;P1;durP2;ratioP2;P2;SDS_P1;SDS_P2;PMS_P1;PMS_P2;Temp;Humidity;BMP_temperature;BMP_pressure;BME280_temperature;BME280_humidity;BME280_pressure;Samples;Min_cycle;Max_cycle;Signal;HPM_P1;HPM_P2
2022/08/28 00:00:29;;;;;;;12.82;4.47;;;;;;;17.49;69.22;101798.13;5019724;28;20057;-51
2022/08/28 00:02:58;;;;;;;12.57;4.90;;;;;;;17.42;69.59;101802.03;5032477;28;20407;-53
2022/08/28 00:05:28;;;;;;;14.77;4.80;;;;;;;17.36;69.55;101805.13;5015980;28;20049;-51
2022/08/28 00:07:56;;;;;;;14.43;5.05;;;;;;;17.18;70.56;101798.41;5034779;28;20048;-48
2022/08/28 00:10:25;;;;;;;14.02;4.70;;;;;;;17.15;70.60;101798.97;5016129;28;20042;-51
2022/08/28 00:12:56;;;;;;;12.48;4.70;;;;;;;17.16;70.56;101797.88;5012481;28;20559;-51
2022/08/28 00:15:30;;;;;;;13.10;4.70;;;;;;;17.08;71.15;101801.22;5026070;28;20477;-50
2022/08/28 00:17:58;;;;;;;11.60;4.65;;;;;;;17.11;71.04;101790.47;5033819;28;20092;-48
2022/08/28 00:20:27;;;;;;;18.33;5.40;;;;;;;17.07;71.14;101805.09;5033265;28;20050;-49
2022/08/28 00:22:55;;;;;;;14.55;4.88;;;;;;;17.09;71.20;101800.13;5014903;28;20042;-52
2022/08/28 00:25:25;;;;;;;13.27;5.03;;;;;;;17.02;71.47;101798.50;5015811;28;20075;-50
2022/08/28 00:27:56;;;;;;;12.23;5.10;;;;;;;17.11;71.27;101795.16;5033534;28;20049;-51
2022/08/28 00:30:26;;;;;;;14.40;4.88;;;;;;;17.18;70.76;101796.47;5015788;28;20045;-49
2022/08/28 00:32:57;;;;;;;13.32;5.30;;;;;;;17.22;70.85;101799.44;5032010;28;20057;-50
2022/08/28 00:35:25;;;;;;;13.27;5.13;;;;;;;17.18;70.66;101801.16;5033489;28;20049;-50
2022/08/28 00:37:53;;;;;;;12.25;4.85;;;;;;;17.15;70.81;101796.22;5033098;28;20050;-50
2022/08/28 00:40:24;;;;;;;15.23;5.32;;;;;;;16.98;71.56;101799.38;5015375;28;20045;-51
2022/08/28 00:43:04;;;;;;;16.77;5.55;;;;;;;16.83;72.20;101803.06;5015310;28;20087;-50
2022/08/28 00:45:32;;;;;;;13.43;4.80;;;;;;;16.86;72.29;101796.16;5034090;28;20038;-48
2022/08/28 00:48:06;;;;;;;11.95;5.05;;;;;;;16.89;72.17;101799.19;5032861;28;20056;-53
2022/08/28 00:53:28;;;;;;;10.68;5.43;;;;;;;16.89;72.79;101803.88;5031682;28;20041;-49
2022/08/28 00:56:04;;;;;;;13.63;5.03;;;;;;;16.74;72.87;101802.00;5015369;28;20037;-50
2022/08/28 00:58:42;;;;;;;13.00;4.68;;;;;;;16.68;73.87;101805.91;5032641;28;20520;-52
2022/08/28 01:01:12;;;;;;;13.90;5.20;;;;;;;16.71;73.39;101808.06;5032561;28;20167;-50
2022/08/28 01:03:42;;;;;;;11.45;4.65;;;;;;;16.69;73.86;101804.78;5030047;28;20038;-50
2022/08/28 01:06:12;;;;;;;12.70;5.20;;;;;;;16.61;74.07;101803.47;5032401;28;20045;-51
2022/08/28 01:08:42;;;;;;;14.07;5.57;;;;;;;16.54;74.60;101814.78;5015209;28;20053;-50
2022/08/28 01:11:18;;;;;;;11.93;4.72;;;;;;;16.55;74.75;101807.38;5015712;28;20044;-49
2022/08/28 01:13:47;;;;;;;13.90;5.50;;;;;;;16.54;74.58;101814.78;5019541;28;20492;-52
2022/08/28 01:16:17;;;;;;;14.20;5.28;;;;;;;16.48;74.80;101813.19;5005255;28;20158;-49
2022/08/28 01:18:46;;;;;;;12.38;5.18;;;;;;;16.30;75.82;101813.81;5011955;28;20044;-52
2022/08/28 01:21:26;;;;;;;13.38;5.28;;;;;;;16.29;76.04;101818.50;5014957;28;20507;-49
2022/08/28 01:23:57;;;;;;;12.38;5.00;;;;;;;16.30;76.59;101813.81;5032442;28;20110;-51
2022/08/28 01:26:27;;;;;;;14.35;5.38;;;;;;;16.32;76.45;101812.41;5014910;28;20083;-47
2022/08/28 01:28:57;;;;;;;12.15;5.18;;;;;;;16.42;76.29;101811.53;4998027;28;20038;-50
2022/08/28 01:31:26;;;;;;;14.95;4.97;;;;;;;16.39;75.98;101812.13;5015081;28;20050;-49
2022/08/28 01:33:54;;;;;;;11.52;4.50;;;;;;;16.23;76.49;101816.03;5033415;28;20508;-50
2022/08/28 01:36:22;;;;;;;13.48;4.88;;;;;;;16.04;77.92;101816.66;5013596;28;20095;-49
2022/08/28 01:38:58;;;;;;;16.38;5.57;;;;;;;16.13;77.63;101823.22;5031975;28;20046;-50
2022/08/28 01:41:28;;;;;;;17.30;5.25;;;;;;;16.11;77.53;101816.38;5001746;28;20049;-49
2022/08/28 01:43:56;;;;;;;13.85;5.00;;;;;;;16.03;78.41;101812.28;5031825;28;20087;-50
2022/08/28 01:46:24;;;;;;;12.40;4.72;;;;;;;15.93;78.86;101815.06;5032353;28;20557;-49
2022/08/28 01:48:51;;;;;;;11.30;4.20;;;;;;;15.83;79.06;101815.91;5030792;28;20110;-49
2022/08/28 01:51:19;;;;;;;11.73;4.28;;;;;;;15.86;79.30;101815.34;5018159;28;20046;-50
2022/08/28 01:53:51;;;;;;;11.07;4.70;;;;;;;15.83;79.26;101821.41;5035106;28;20045;-48
2022/08/28 01:56:19;;;;;;;13.93;5.07;;;;;;;15.80;79.89;101818.38;5030240;28;20041;-50
2022/08/28 01:58:47;;;;;;;13.18;4.88;;;;;;;15.73;79.87;101818.69;5014770;28;20049;-50
2022/08/28 02:01:18;;;;;;;13.88;4.60;;;;;;;15.75;80.29;101825.56;5014193;28;20566;-47
2022/08/28 02:03:46;;;;;;;12.05;5.00;;;;;;;15.73;80.03;101816.78;5015014;28;20046;-50
2022/08/28 02:06:15;;;;;;;16.33;5.22;;;;;;;15.80;80.12;101821.13;5037706;28;20057;-51
2022/08/28 02:08:42;;;;;;;13.73;4.95;;;;;;;15.89;79.38;101824.97;5026157;28;20531;-50
2022/08/28 02:11:11;;;;;;;18.02;5.07;;;;;;;16.06;78.84;101824.63;5040579;28;20132;-49
2022/08/28 02:13:40;;;;;;;17.13;5.20;;;;;;;16.10;78.52;101829.28;5014945;28;20048;-49
2022/08/28 02:16:09;;;;;;;12.88;4.50;;;;;;;16.01;78.52;101828.22;5021990;28;20125;-52
2022/08/28 02:18:37;;;;;;;13.07;4.78;;;;;;;16.07;78.54;101840.03;5030556;28;20034;-50
2022/08/28 02:21:05;;;;;;;11.02;4.72;;;;;;;16.13;77.60;101834.22;5039919;28;20112;-49
2022/08/28 02:23:35;;;;;;;14.45;4.40;;;;;;;15.99;78.91;101835.91;5034697;28;20054;-49
2022/08/28 02:26:02;;;;;;;11.55;4.50;;;;;;;15.96;78.56;101839.25;5030794;28;20038;-51
2022/08/28 02:28:30;;;;;;;12.52;4.82;;;;;;;16.00;78.64;101840.34;5034877;28;20527;-51
2022/08/28 02:30:58;;;;;;;14.48;4.57;;;;;;;15.87;79.24;101844.47;5035458;28;20350;-51
2022/08/28 02:33:26;;;;;;;16.05;5.28;;;;;;;15.72;79.73;101836.28;5017668;28;20057;-48
2022/08/28 02:35:53;;;;;;;11.85;4.60;;;;;;;15.71;80.16;101846.44;5035661;28;20095;-49
2022/08/28 02:38:21;;;;;;;12.15;4.40;;;;;;;15.66;80.34;101838.19;5017402;28;20116;-49
2022/08/28 02:40:49;;;;;;;12.85;4.60;;;;;;;15.66;80.52;101838.19;5001821;28;20535;-51
2022/08/28 02:43:16;;;;;;;13.80;4.65;;;;;;;15.74;80.49;101845.88;5035377;28;20049;-49
2022/08/28 02:45:44;;;;;;;15.15;4.95;;;;;;;15.66;79.96;101840.94;5017966;28;20044;-49
2022/08/28 02:48:14;;;;;;;14.68;4.55;;;;;;;15.49;81.57;101843.13;5034815;28;20042;-47
2022/08/28 02:50:45;;;;;;;12.38;4.65;;;;;;;15.59;81.33;101843.13;5033166;28;20049;-51
2022/08/28 02:53:13;;;;;;;14.02;4.15;;;;;;;15.75;80.63;101836.56;5017742;28;20041;-50
2022/08/28 02:55:41;;;;;;;13.70;4.80;;;;;;;15.95;79.58;101846.66;5034880;28;20459;-49
2022/08/28 02:58:09;;;;;;;9.10;4.35;;;;;;;16.09;78.94;101846.06;5033906;28;20046;-48
2022/08/28 03:00:36;;;;;;;13.30;4.10;;;;;;;15.93;78.76;101834.31;5017204;28;20056;-51
2022/08/28 03:03:04;;;;;;;15.27;4.57;;;;;;;15.89;79.66;101841.44;5034926;28;20072;-47
2022/08/28 03:05:31;;;;;;;12.23;4.50;;;;;;;15.95;79.24;101840.34;5034520;28;20400;-52
2022/08/28 03:07:59;;;;;;;14.45;4.63;;;;;;;15.93;78.74;101839.81;5033792;28;20048;-49
2022/08/28 03:10:27;;;;;;;11.75;4.40;;;;;;;15.86;79.16;101836.53;5034461;28;20103;-50
2022/08/28 03:12:55;;;;;;;10.07;4.13;;;;;;;15.82;79.82;101839.00;5018506;28;20551;-49
2022/08/28 03:15:22;;;;;;;15.43;4.97;;;;;;;15.80;79.72;101837.63;5034668;28;20451;-49
2022/08/28 03:17:50;;;;;;;10.25;4.07;;;;;;;15.75;79.71;101835.72;5034803;28;20053;-51
2022/08/28 03:20:18;;;;;;;10.23;4.15;;;;;;;15.72;79.79;101841.78;5015703;28;20037;-49
2022/08/28 03:25:32;;;;;;;14.95;4.47;;;;;;;15.65;80.72;101846.69;5035784;28;20091;-50
2022/08/28 03:27:59;;;;;;;10.07;4.20;;;;;;;15.67;80.89;101847.25;5034613;28;20055;-50
2022/08/28 03:30:27;;;;;;;12.70;4.05;;;;;;;15.70;80.05;101850.28;5033279;28;20095;-49
2022/08/28 03:32:55;;;;;;;13.55;4.45;;;;;;;15.57;80.88;101845.34;5037783;28;20046;-50
2022/08/28 03:35:22;;;;;;;11.20;4.28;;;;;;;15.67;80.49;101839.81;5000160;28;20384;-48
2022/08/28 03:37:50;;;;;;;14.88;4.63;;;;;;;15.68;80.31;101840.63;5035074;28;20049;-50
2022/08/28 03:40:19;;;;;;;10.43;4.20;;;;;;;15.64;81.17;101851.38;5015241;28;20050;-49
2022/08/28 03:42:47;;;;;;;10.70;4.03;;;;;;;15.72;80.95;101850.81;5031058;28;20098;-49
2022/08/28 03:45:20;;;;;;;11.35;4.72;;;;;;;15.83;80.35;101851.66;5016829;28;20046;-49
2022/08/28 03:47:48;;;;;;;12.98;4.60;;;;;;;15.81;80.07;101855.78;5016466;28;20046;-49
2022/08/28 03:50:17;;;;;;;15.55;3.95;;;;;;;15.81;79.99;101864.03;5033818;28;20042;-52
2022/08/28 03:52:46;;;;;;;13.40;4.22;;;;;;;15.81;79.95;101864.03;5015572;28;20064;-48
2022/08/28 03:55:14;;;;;;;12.27;4.30;;;;;;;15.81;79.84;101864.03;5016391;28;20044;-51
2022/08/28 03:57:42;;;;;;;11.15;4.43;;;;;;;15.77;79.91;101867.31;5033659;28;20139;-49
2022/08/28 04:00:12;;;;;;;12.30;4.25;;;;;;;15.76;80.19;101870.34;5033167;28;20464;-49
2022/08/28 04:02:44;;;;;;;11.88;3.90;;;;;;;15.75;80.15;101872.28;5019084;28;20045;-50
2022/08/28 04:05:13;;;;;;;11.07;3.88;;;;;;;15.79;80.22;101864.28;5015674;28;20049;-49
2022/08/28 04:07:41;;;;;;;10.02;3.95;;;;;;;15.83;79.79;101868.13;5032407;28;20046;-51
2022/08/28 04:10:08;;;;;;;9.75;3.80;;;;;;;15.92;79.57;101871.97;5032867;28;20049;-50
2022/08/28 04:12:36;;;;;;;12.68;4.40;;;;;;;16.01;79.02;101871.38;5031020;28;20049;-51
2022/08/28 04:15:05;;;;;;;12.90;4.35;;;;;;;16.05;79.01;101878.81;5033371;28;20086;-50
2022/08/28 04:17:35;;;;;;;12.98;4.40;;;;;;;16.08;78.59;101870.00;5015057;28;20404;-49
2022/08/28 04:20:04;;;;;;;12.90;4.15;;;;;;;16.05;78.73;101864.25;5014832;28;20045;-50
2022/08/28 04:22:31;;;;;;;11.50;4.20;;;;;;;16.00;78.43;101865.06;5031797;28;20041;-49
2022/08/28 04:25:00;;;;;;;13.82;4.45;;;;;;;15.94;79.15;101871.69;5031652;28;20049;-51
2022/08/28 04:27:27;;;;;;;11.70;4.40;;;;;;;15.85;79.73;101870.59;5033573;28;20091;-50
2022/08/28 04:29:55;;;;;;;11.55;4.28;;;;;;;15.80;79.72;101879.66;5033315;28;20101;-51
2022/08/28 04:32:23;;;;;;;12.57;4.45;;;;;;;15.73;80.60;101877.22;5014393;28;20044;-50
2022/08/28 04:34:51;;;;;;;10.10;3.88;;;;;;;15.77;80.38;101878.28;5033122;28;20049;-50
2022/08/28 04:37:18;;;;;;;9.90;3.83;;;;;;;15.76;80.58;101882.16;5032879;28;20455;-49
2022/08/28 04:39:49;;;;;;;14.48;4.22;;;;;;;15.73;80.05;101888.22;5032746;28;20095;-51
2022/08/28 04:42:17;;;;;;;10.93;3.75;;;;;;;15.59;81.04;101884.34;5034279;28;20037;-53
2022/08/28 04:44:44;;;;;;;11.13;3.97;;;;;;;15.50;81.97;101880.50;5032866;28;20051;-53
2022/08/28 04:47:12;;;;;;;12.00;4.28;;;;;;;15.53;81.23;101893.69;5032848;28;20046;-49
2022/08/28 04:49:39;;;;;;;11.65;4.07;;;;;;;15.48;81.80;101890.94;5031741;28;20042;-50
2022/08/28 04:52:07;;;;;;;14.02;4.25;;;;;;;15.42;81.83;101894.81;5033019;28;20087;-52
2022/08/28 04:54:35;;;;;;;10.38;3.97;;;;;;;15.33;82.56;101898.06;5027357;28;20071;-51
2022/08/28 04:57:03;;;;;;;13.73;4.30;;;;;;;15.39;82.90;101904.38;5031458;28;20038;-50
2022/08/28 04:59:33;;;;;;;11.30;4.28;;;;;;;15.33;82.25;101891.75;5032620;28;20057;-50
2022/08/28 05:02:00;;;;;;;13.77;4.38;;;;;;;15.29;82.96;101904.38;5032739;28;20087;-50
2022/08/28 05:04:28;;;;;;;12.05;4.43;;;;;;;15.27;83.01;101896.44;5032838;28;20044;-51
2022/08/28 05:06:56;;;;;;;13.65;4.60;;;;;;;15.23;83.23;101898.06;5031930;28;20340;-49
2022/08/28 05:09:24;;;;;;;11.38;4.03;;;;;;;15.24;83.53;101896.13;5032710;28;20102;-49
2022/08/28 05:11:52;;;;;;;11.70;3.90;;;;;;;15.26;82.91;101903.00;5032370;28;20500;-50
2022/08/28 05:14:20;;;;;;;12.57;4.13;;;;;;;15.30;82.71;101903.31;5043685;28;20853;-48
2022/08/28 05:16:51;;;;;;;13.82;4.53;;;;;;;15.31;82.51;101905.75;5035385;28;20049;-47
2022/08/28 05:19:20;;;;;;;10.75;4.57;;;;;;;15.29;82.94;101910.69;5030780;28;20401;-48
2022/08/28 05:21:48;;;;;;;12.95;4.25;;;;;;;15.35;82.48;101908.78;5031407;28;20045;-45
2022/08/28 05:24:16;;;;;;;13.98;4.53;;;;;;;15.30;82.53;101917.84;5032046;28;20049;-46
2022/08/28 05:26:44;;;;;;;11.18;4.20;;;;;;;15.29;83.17;101921.66;5015180;28;20050;-48
2022/08/28 05:29:15;;;;;;;9.63;4.15;;;;;;;15.34;82.49;101918.97;5030795;28;20480;-46
2022/08/28 05:31:43;;;;;;;13.65;4.00;;;;;;;15.34;82.65;101918.97;5031567;28;20045;-49
2022/08/28 05:34:14;;;;;;;12.40;4.75;;;;;;;15.28;83.04;101931.03;4997577;28;20045;-46
2022/08/28 05:36:41;;;;;;;12.73;4.30;;;;;;;15.28;83.14;101927.47;5031919;28;20052;-49
2022/08/28 05:39:10;;;;;;;11.90;4.28;;;;;;;15.28;83.20;101930.19;4999024;28;20045;-50
2022/08/28 05:41:42;;;;;;;12.93;4.07;;;;;;;15.20;83.58;101934.31;5014789;28;20067;-49
2022/08/28 05:44:12;;;;;;;11.48;4.32;;;;;;;15.24;83.56;101929.91;5032093;28;20038;-50
2022/08/28 05:46:42;;;;;;;12.82;4.60;;;;;;;15.40;83.11;101927.19;5032329;28;20045;-49
2022/08/28 05:49:11;;;;;;;10.80;4.10;;;;;;;15.48;82.59;101929.38;5030626;28;20037;-48
2022/08/28 05:51:40;;;;;;;11.55;4.30;;;;;;;15.58;81.71;101934.06;5032852;28;20042;-49
2022/08/28 05:54:08;;;;;;;12.20;4.10;;;;;;;15.66;81.42;101926.09;5031916;28;20508;-49
2022/08/28 05:56:39;;;;;;;12.02;4.40;;;;;;;15.70;81.07;101938.19;5031522;28;20045;-49
2022/08/28 05:59:07;;;;;;;13.13;4.22;;;;;;;15.73;81.01;101939.59;5030410;28;20046;-48
2022/08/28 06:01:43;;;;;;;12.02;3.92;;;;;;;15.75;80.84;101929.13;5032304;28;20045;-49
2022/08/28 06:04:16;;;;;;;;;;;;;;;15.76;80.74;101934.38;5018957;28;20131;-49
2022/08/28 06:06:45;;;;;;;13.15;4.55;;;;;;;15.67;81.39;101935.97;5023648;28;19920;-50
2022/08/28 06:09:19;;;;;;;10.68;4.13;;;;;;;15.49;82.72;101948.34;5017513;28;20057;-49
2022/08/28 06:11:48;;;;;;;10.43;4.30;;;;;;;15.42;83.06;101941.50;5019770;28;20121;-50
2022/08/28 06:14:19;;;;;;;16.23;4.97;;;;;;;15.41;83.55;101945.31;5036606;28;20057;-49
2022/08/28 06:16:52;;;;;;;13.80;4.38;;;;;;;15.46;83.30;101948.06;5036166;28;20041;-51
2022/08/28 06:19:22;;;;;;;14.07;4.93;;;;;;;15.41;83.52;101951.63;5037343;28;20045;-48
2022/08/28 06:21:52;;;;;;;14.20;4.50;;;;;;;15.34;83.79;101957.41;5014241;28;20497;-50
2022/08/28 06:24:20;;;;;;;16.52;5.47;;;;;;;15.32;84.88;101954.09;5052941;28;20045;-50
2022/08/28 06:26:48;;;;;;;14.73;4.90;;;;;;;15.37;84.32;101952.44;5041625;28;20037;-53
2022/08/28 06:29:18;;;;;;;12.15;4.50;;;;;;;15.39;84.25;101953.00;5048028;28;20120;-49
2022/08/28 06:31:53;;;;;;;11.98;4.18;;;;;;;15.36;84.73;101959.03;5048105;28;20044;-49
2022/08/28 06:34:21;;;;;;;14.50;4.22;;;;;;;15.42;84.74;101950.53;5042296;28;20116;-50
2022/08/28 06:36:49;;;;;;;13.95;4.35;;;;;;;15.46;84.19;101953.56;5043580;28;20064;-48
2022/08/28 06:39:21;;;;;;;12.77;4.75;;;;;;;15.46;84.66;101956.31;5036204;28;20128;-46
2022/08/28 06:41:49;;;;;;;10.45;4.43;;;;;;;15.54;84.46;101953.03;5034452;28;20041;-47
2022/08/28 06:44:19;;;;;;;14.07;4.28;;;;;;;15.63;83.93;101956.84;5001002;28;20194;-48
2022/08/28 06:46:49;;;;;;;14.60;4.50;;;;;;;15.64;83.31;101954.97;5017403;28;20046;-47
2022/08/28 06:49:17;;;;;;;13.43;3.65;;;;;;;15.59;83.68;101957.72;5036240;28;20114;-46
2022/08/28 06:51:45;;;;;;;12.80;4.32;;;;;;;15.64;83.53;101965.94;5031855;28;20041;-48
2022/08/28 06:54:14;;;;;;;14.15;3.92;;;;;;;15.67;83.20;101960.72;5035240;28;20056;-46
2022/08/28 06:56:49;;;;;;;14.23;4.30;;;;;;;15.77;82.98;101959.91;5018079;28;20103;-48
2022/08/28 06:59:17;;;;;;;7.95;3.47;;;;;;;15.89;82.43;101956.88;5017441;28;20062;-48
2022/08/28 07:01:45;;;;;;;15.85;3.97;;;;;;;15.96;81.94;101969.25;5033247;28;20038;-46
2022/08/28 07:04:13;;;;;;;10.77;3.85;;;;;;;15.99;82.04;101965.13;5011439;28;20053;-45
2022/08/28 07:06:44;;;;;;;13.68;3.63;;;;;;;16.05;82.37;101966.78;5036096;28;20046;-45
2022/08/28 07:09:13;;;;;;;10.20;3.58;;;;;;;16.12;82.12;101975.56;5017991;28;20134;-48
2022/08/28 07:11:45;;;;;;;12.68;3.97;;;;;;;16.18;81.24;101971.69;5016817;28;20033;-46
2022/08/28 07:14:13;;;;;;;13.15;4.30;;;;;;;16.24;80.92;101968.97;5032066;28;20183;-50
2022/08/28 07:16:41;;;;;;;14.65;3.92;;;;;;;16.23;80.01;101973.59;5033215;28;20049;-49
2022/08/28 07:19:10;;;;;;;12.40;3.78;;;;;;;16.27;80.06;101968.41;5034216;28;20042;-49
2022/08/28 07:21:41;;;;;;;13.60;3.90;;;;;;;16.28;79.75;101979.09;5034760;28;20045;-49
2022/08/28 07:24:10;;;;;;;21.17;5.55;;;;;;;16.30;79.46;101967.81;5033423;28;20052;-51
2022/08/28 07:26:39;;;;;;;15.23;4.43;;;;;;;16.33;79.58;101972.75;5017366;28;20050;-49
2022/08/28 07:29:08;;;;;;;10.48;3.72;;;;;;;16.37;79.12;101971.94;5034223;28;20064;-50
2022/08/28 07:31:43;;;;;;;9.77;3.33;;;;;;;16.43;78.34;101977.41;5016237;28;20425;-50
2022/08/28 07:34:12;;;;;;;10.73;3.60;;;;;;;16.45;77.38;101967.81;5016900;28;20040;-51
2022/08/28 07:36:41;;;;;;;11.88;3.50;;;;;;;16.50;77.39;101967.78;5016469;28;20037;-50
2022/08/28 07:39:09;;;;;;;15.70;4.18;;;;;;;16.55;76.94;101976.03;5016058;28;20041;-47
2022/08/28 07:41:39;;;;;;;13.40;3.75;;;;;;;16.55;76.66;101978.78;5016964;28;20048;-49
2022/08/28 07:46:55;;;;;;;12.02;4.00;;;;;;;16.66;75.66;101975.97;5041862;28;20045;-49
2022/08/28 07:49:24;;;;;;;10.52;3.38;;;;;;;16.70;75.78;101982.56;5033990;28;20072;-52
2022/08/28 07:51:52;;;;;;;14.35;3.47;;;;;;;16.78;74.17;101979.22;5035113;28;20046;-49
2022/08/28 07:54:21;;;;;;;11.40;3.42;;;;;;;16.82;73.71;101980.34;5016414;28;20056;-47
2022/08/28 07:56:50;;;;;;;12.07;3.72;;;;;;;16.88;73.63;101989.41;5033694;28;20048;-53
2022/08/28 07:59:19;;;;;;;13.23;3.67;;;;;;;16.85;72.82;101989.97;5033507;28;20068;-51
2022/08/28 08:01:50;;;;;;;10.50;3.00;;;;;;;16.87;72.39;101991.34;5033921;28;20038;-50
2022/08/28 08:04:19;;;;;;;14.00;3.78;;;;;;;16.90;72.38;101990.78;5034559;28;20076;-50
2022/08/28 08:06:46;;;;;;;8.82;3.08;;;;;;;16.96;71.94;101997.09;5033746;28;20091;-49
2022/08/28 08:09:16;;;;;;;13.38;3.47;;;;;;;17.06;71.44;102001.72;5033658;28;20045;-50
2022/08/28 08:11:45;;;;;;;12.13;3.50;;;;;;;17.12;70.54;101992.31;4999779;28;20049;-52
2022/08/28 08:14:16;;;;;;;12.63;3.58;;;;;;;17.16;71.02;102007.19;5016363;28;20055;-50
2022/08/28 08:16:45;;;;;;;9.93;3.20;;;;;;;17.16;69.89;101996.16;5017071;28;20118;-50
2022/08/28 08:19:14;;;;;;;13.38;3.35;;;;;;;17.17;70.32;102003.31;5001311;28;20038;-51
2022/08/28 08:21:44;;;;;;;12.20;3.67;;;;;;;17.25;69.64;102011.81;5028261;28;20042;-52
2022/08/28 08:24:19;;;;;;;11.85;3.40;;;;;;;17.31;69.14;102015.34;5015754;28;20041;-50
2022/08/28 08:26:51;;;;;;;10.80;3.58;;;;;;;17.30;69.01;102001.88;5016687;28;20125;-51
2022/08/28 08:29:28;;;;;;;9.43;3.38;;;;;;;17.31;69.17;102006.25;5017881;28;20450;-50
2022/08/28 08:32:03;;;;;;;11.73;3.17;;;;;;;17.28;68.52;102012.34;5033136;28;20099;-54
2022/08/28 08:34:37;;;;;;;10.95;3.40;;;;;;;17.24;68.05;102001.06;5033115;28;20045;-49
2022/08/28 08:37:05;;;;;;;12.75;3.65;;;;;;;17.23;68.39;102000.25;5033239;28;20099;-50
2022/08/28 08:39:36;;;;;;;11.02;2.80;;;;;;;17.22;68.57;101998.59;5033054;28;20090;-51
2022/08/28 08:42:09;;;;;;;7.78;2.88;;;;;;;17.23;68.70;102003.00;5033837;28;20527;-50
2022/08/28 08:44:42;;;;;;;11.00;3.47;;;;;;;17.23;68.87;101991.16;5032935;28;20049;-46
2022/08/28 08:47:39;;;;;;;8.60;2.85;;;;;;;17.26;68.60;102004.34;5015379;28;20099;-49
2022/08/28 08:50:29;;;;;;;8.05;3.03;;;;;;;17.30;68.56;102013.72;5006600;28;20045;-49
2022/08/28 08:52:56;;;;;;;13.50;3.38;;;;;;;17.35;67.97;101997.16;5015781;28;20045;-48
2022/08/28 08:55:45;;;;;;;9.32;3.00;;;;;;;17.38;68.03;102012.28;5016854;28;20057;-48
2022/08/28 08:58:29;;;;;;;9.70;3.25;;;;;;;17.39;67.56;102009.25;5033421;28;20411;-52
2022/08/28 09:00:56;;;;;;;10.07;3.22;;;;;;;17.42;66.60;102010.63;5032977;28;20408;-49
2022/08/28 09:03:46;;;;;;;8.73;2.70;;;;;;;17.53;65.21;102001.16;5033379;28;20045;-50
2022/08/28 09:06:24;;;;;;;14.45;3.17;;;;;;;17.66;64.73;102000.50;5016965;28;20526;-51
2022/08/28 09:09:14;;;;;;;12.27;2.97;;;;;;;17.78;64.40;102015.88;5033324;28;20057;-52
2022/08/28 09:11:52;;;;;;;8.23;2.72;;;;;;;17.91;63.25;102001.44;5033077;28;20038;-51
2022/08/28 09:14:31;;;;;;;8.32;2.72;;;;;;;17.98;64.10;101996.41;5016425;28;20046;-51
2022/08/28 09:17:00;;;;;;;12.55;3.33;;;;;;;17.97;64.30;102007.75;5032977;28;20504;-50
2022/08/28 09:19:28;;;;;;;9.70;3.15;;;;;;;17.95;64.91;102001.72;5009442;28;20431;-51
2022/08/28 09:21:56;;;;;;;10.27;2.90;;;;;;;17.96;64.59;102008.84;5036039;28;20057;-50
2022/08/28 09:24:27;;;;;;;9.23;2.65;;;;;;;18.02;64.46;102004.97;5015420;28;20049;-49
2022/08/28 09:27:00;;;;;;;10.95;3.30;;;;;;;18.15;64.53;102006.22;5044033;28;20098;-51
2022/08/28 09:29:32;;;;;;;9.82;3.33;;;;;;;18.28;64.10;102011.06;5015583;28;20034;-54
2022/08/28 09:32:23;;;;;;;11.75;3.22;;;;;;;18.31;63.62;102008.53;5033639;28;20049;-50
2022/08/28 09:35:23;;;;;;;9.38;3.13;;;;;;;18.26;63.16;102013.28;5032885;28;20053;-51
2022/08/28 09:37:51;;;;;;;10.20;2.70;;;;;;;18.11;61.79;102000.44;5002888;28;20048;-53
2022/08/28 09:40:23;;;;;;;9.57;2.83;;;;;;;18.10;62.31;101998.81;5032467;28;20041;-53
2022/08/28 09:46:12;;;;;;;8.93;2.83;;;;;;;18.18;61.53;101994.59;5029381;28;20447;-53
2022/08/28 09:48:42;;;;;;;7.18;2.72;;;;;;;18.21;60.30;101994.03;5016573;28;20099;-49
2022/08/28 09:51:21;;;;;;;9.63;2.60;;;;;;;18.26;60.19;101997.53;5015360;28;20100;-54
2022/08/28 09:53:55;;;;;;;8.32;2.60;;;;;;;18.37;59.59;101991.91;5014938;28;20041;-50
2022/08/28 09:56:34;;;;;;;11.35;2.92;;;;;;;18.55;59.02;102007.72;5037596;28;20037;-49
2022/08/28 09:59:11;;;;;;;7.18;2.78;;;;;;;18.61;58.55;101995.50;5037912;28;20057;-51
2022/08/28 10:02:01;;;;;;;6.50;2.53;;;;;;;18.70;59.14;101996.50;5032513;28;20042;-53
2022/08/28 10:05:08;;;;;;;7.50;2.60;;;;;;;18.88;57.51;101986.66;5025900;28;20091;-50
2022/08/28 10:08:00;;;;;;;7.32;2.80;;;;;;;19.02;56.89;101986.75;5014813;28;20087;-54
2022/08/28 10:10:38;;;;;;;6.30;2.40;;;;;;;19.06;56.67;101993.31;5032315;28;20049;-51
2022/08/28 10:13:13;;;;;;;6.80;2.28;;;;;;;19.04;55.87;101986.44;5014938;28;20094;-48
2022/08/28 10:15:41;;;;;;;8.00;2.38;;;;;;;19.09;55.88;101994.66;5032662;28;20385;-50
2022/08/28 10:18:31;;;;;;;6.78;2.72;;;;;;;19.12;55.77;101986.63;5032310;28;20131;-48
2022/08/28 10:21:12;;;;;;;6.78;2.47;;;;;;;19.13;56.19;101988.25;5005514;28;20045;-50
2022/08/28 10:24:07;;;;;;;11.07;3.05;;;;;;;19.29;55.78;102007.38;5014915;28;20042;-51
2022/08/28 10:26:55;;;;;;;9.32;2.58;;;;;;;19.20;54.86;101998.13;5032155;28;20091;-50
2022/08/28 10:29:48;;;;;;;7.43;2.88;;;;;;;19.08;55.27;101996.63;5020628;28;20041;-48
2022/08/28 10:32:37;;;;;;;8.77;2.58;;;;;;;19.02;55.17;101996.97;5033667;28;20175;-53
2022/08/28 10:35:17;;;;;;;7.75;2.50;;;;;;;19.00;55.46;101996.44;5041012;28;20089;-49
2022/08/28 10:37:58;;;;;;;5.18;2.45;;;;;;;19.08;55.72;101998.56;5010008;28;20049;-49
2022/08/28 10:40:41;;;;;;;9.27;2.33;;;;;;;19.27;55.37;101987.53;5035738;28;20441;-48
2022/08/28 10:43:18;;;;;;;7.72;2.63;;;;;;;19.32;54.82;101995.75;5021918;28;20049;-52
2022/08/28 10:45:46;;;;;;;8.45;2.50;;;;;;;19.27;54.83;102004.09;5038144;28;20120;-52
2022/08/28 10:48:52;;;;;;;6.18;2.70;;;;;;;19.26;55.08;101980.34;5018660;28;20120;-50
2022/08/28 10:51:34;;;;;;;8.48;2.60;;;;;;;19.24;54.69;101982.56;4929166;29;20166;-53
2022/08/28 10:54:38;;;;;;;7.18;2.60;;;;;;;19.23;55.25;101986.47;5035383;28;20107;-52
2022/08/28 10:57:36;;;;;;;5.85;2.50;;;;;;;19.28;55.61;101991.91;5016498;28;20084;-50
2022/08/28 11:00:19;;;;;;;9.23;2.50;;;;;;;19.31;55.08;101985.78;5007530;28;20095;-52
2022/08/28 11:02:51;;;;;;;6.57;2.70;;;;;;;19.31;54.97;101994.06;5020894;28;20450;-49
2022/08/28 11:05:23;;;;;;;6.20;2.53;;;;;;;19.29;55.17;101990.78;5017756;28;20037;-52
2022/08/28 11:07:54;;;;;;;10.13;2.63;;;;;;;19.27;55.04;101999.41;5035343;28;20083;-54
2022/08/28 11:10:34;;;;;;;7.85;2.50;;;;;;;19.26;55.01;101985.88;5036426;28;20049;-53
2022/08/28 11:13:03;;;;;;;11.60;2.90;;;;;;;19.23;54.71;101987.28;5043147;28;20057;-49
2022/08/28 11:15:31;;;;;;;7.32;2.30;;;;;;;19.24;54.73;101997.25;5041528;28;20083;-52
2022/08/28 11:18:16;;;;;;;6.65;2.40;;;;;;;19.24;54.44;101999.16;5035071;28;20404;-50
2022/08/28 11:21:07;;;;;;;6.07;2.53;;;;;;;19.29;54.15;101993.56;5040318;28;20095;-51
2022/08/28 11:23:53;;;;;;;5.47;2.53;;;;;;;19.39;53.46;101993.44;5017209;28;20044;-51
2022/08/28 11:26:47;;;;;;;5.72;2.17;;;;;;;19.55;52.53;101989.31;5034893;28;20385;-53
2022/08/28 11:29:54;;;;;;;7.43;2.40;;;;;;;19.69;52.54;101994.09;5005260;28;20041;-49
2022/08/28 11:32:30;;;;;;;9.10;2.67;;;;;;;19.82;50.64;101998.88;5015648;28;20046;-52
2022/08/28 11:35:04;;;;;;;9.00;2.88;;;;;;;19.91;50.01;101993.44;5017743;28;20049;-49
2022/08/28 11:37:44;;;;;;;4.03;2.20;;;;;;;19.92;50.12;101990.38;5017232;28;20041;-50
2022/08/28 11:40:33;;;;;;;7.75;2.55;;;;;;;20.03;51.36;101990.19;5017533;28;20091;-55
2022/08/28 11:43:33;;;;;;;6.75;2.72;;;;;;;20.18;51.49;101981.66;5030390;28;20111;-53
2022/08/28 11:46:09;;;;;;;5.13;2.60;;;;;;;20.27;50.37;101982.56;4320776;28;10000890;-54
2022/08/28 11:48:42;;;;;;;7.10;2.40;;;;;;;20.24;48.81;101983.19;5031333;28;20103;-50
2022/08/28 11:51:32;;;;;;;5.82;2.50;;;;;;;20.15;50.73;101990.53;5013236;28;20045;-52
2022/08/28 11:54:04;;;;;;;5.47;2.17;;;;;;;20.12;49.31;101980.09;5029958;28;20500;-50